Time;durP1;ratioP1;P1;durP2;ratioP2;P2;SDS_P1;SDS_P2;PMS_P1;PMS_P2;Temp;Humidity;BMP_temperature;BMP_pressure;BME280_temperature;BME280_humidity;BME280_pressure;Samples;Min_cycle;Max_cycle;Signal;HPM_P1;HPM_P2
2022/03/05 00:02:36;;;;;;;26.77;12.50;;;4.90;78.50;;;;;;6093630;23;20426;-84
2022/03/05 00:10:01;;;;;;;;;;;;;;;;;;;;;
2022/03/05 00:13:05;;;;;;;23.57;11.33;;;4.90;79.60;;;;;;5969249;24;20416;-83
2022/03/05 00:15:43;;;;;;;22.77;10.80;;;4.80;80.30;;;;;;5956255;24;20569;-85
2022/03/05 00:18:11;;;;;;;22.97;11.87;;;4.90;80.70;;;;;;5953955;24;20436;-83
2022/03/05 00:20:44;;;;;;;17.30;9.60;;;4.80;80.60;;;;;;5977823;24;20416;-84
2022/03/05 00:23:15;;;;;;;24.43;12.40;;;4.80;81.30;;;;;;5967499;24;20419;-85
2022/03/05 00:25:49;;;;;;;28.07;13.40;;;4.70;81.60;;;;;;5945678;24;20889;-86
2022/03/05 00:28:24;;;;;;;21.77;13.00;;;4.60;82.20;;;;;;5972237;24;20988;-84
2022/03/05 00:30:58;;;;;;;23.40;11.93;;;4.60;83.00;;;;;;6087030;23;20438;-84
2022/03/05 00:33:25;;;;;;;27.97;13.57;;;4.50;83.60;;;;;;6101223;23;20769;-81
2022/03/05 00:35:51;;;;;;;28.27;13.23;;;4.50;84.40;;;;;;6128808;23;20451;-86
2022/03/05 00:38:21;;;;;;;22.80;12.40;;;4.40;84.60;;;;;;6101479;23;20439;-84
2022/03/05 00:40:56;;;;;;;25.83;12.63;;;4.40;85.10;;;;;;6104297;23;20415;-85
2022/03/05 00:43:28;;;;;;;31.80;13.13;;;4.30;85.60;;;;;;6102629;23;20411;-84
2022/03/05 00:45:59;;;;;;;31.50;14.00;;;4.20;86.20;;;;;;6133009;23;20495;-87
2022/03/05 00:48:33;;;;;;;21.73;11.23;;;4.20;86.70;;;;;;6104979;23;20444;-86
2022/03/05 00:51:01;;;;;;;26.00;13.53;;;4.20;87.40;;;;;;6115892;23;20424;-87
2022/03/05 00:53:33;;;;;;;23.70;11.33;;;4.20;87.80;;;;;;6118080;23;20399;-85
2022/03/05 00:56:02;;;;;;;29.50;13.33;;;4.20;87.90;;;;;;6098273;23;21347;-85
2022/03/05 00:58:30;;;;;;;23.07;12.27;;;4.10;88.20;;;;;;6124459;23;20431;-84
2022/03/05 01:00:56;;;;;;;28.07;13.40;;;4.10;88.80;;;;;;6126035;23;20418;-82
2022/03/05 01:03:23;;;;;;;28.60;13.97;;;4.00;89.10;;;;;;6125064;23;20440;-85
2022/03/05 01:05:50;;;;;;;27.30;12.97;;;4.10;89.70;;;;;;6125433;23;20731;-85
2022/03/05 01:08:17;;;;;;;24.03;12.87;;;4.20;89.50;;;;;;6098991;23;20979;-82
2022/03/05 01:10:44;;;;;;;22.10;11.37;;;4.10;89.20;;;;;;6103488;23;20440;-86
2022/03/05 01:13:11;;;;;;;28.70;13.63;;;4.00;89.80;;;;;;6127379;23;20411;-84
2022/03/05 01:15:37;;;;;;;25.33;11.00;;;4.00;90.60;;;;;;6103941;23;20408;-85
2022/03/05 01:18:04;;;;;;;26.07;13.13;;;4.00;90.40;;;;;;6100461;23;20466;-81
2022/03/05 01:20:31;;;;;;;32.80;15.20;;;4.00;90.30;;;;;;6102510;23;20730;-85
2022/03/05 01:22:59;;;;;;;32.07;14.63;;;3.90;90.60;;;;;;6094284;23;20486;-84
2022/03/05 01:25:36;;;;;;;28.77;14.27;;;3.80;90.90;;;;;;6094022;23;20395;-84
2022/03/05 01:28:18;;;;;;;28.07;14.40;;;3.80;91.00;;;;;;6115799;23;20562;-84
2022/03/05 01:31:04;;;;;;;35.37;14.40;;;3.70;91.20;;;;;;6115968;23;20423;-86
2022/03/05 01:33:47;;;;;;;28.97;14.10;;;3.80;91.30;;;;;;6090313;23;20426;-85
2022/03/05 01:36:21;;;;;;;28.33;12.13;;;3.80;91.30;;;;;;6089507;23;20911;-84
2022/03/05 01:38:54;;;;;;;27.63;14.10;;;3.80;91.40;;;;;;6089245;23;20446;-85
2022/03/05 01:41:54;;;;;;;;;;;;;;;;;;;;;
2022/03/05 01:44:48;;;;;;;30.00;14.30;;;3.70;91.70;;;;;;6117113;23;20767;-84
2022/03/05 01:47:27;;;;;;;29.17;14.13;;;3.70;91.60;;;;;;6115565;23;20427;-84
2022/03/05 01:50:14;;;;;;;28.67;13.17;;;3.60;91.80;;;;;;6089850;23;20447;-85
2022/03/05 01:53:10;;;;;;;25.30;11.57;;;3.70;91.90;;;;;;6090852;23;20524;-85
2022/03/05 01:55:50;;;;;;;23.03;12.30;;;3.70;92.10;;;;;;6088521;23;20452;-85
2022/03/05 01:58:47;;;;;;;32.60;14.70;;;3.70;92.30;;;;;;6095269;23;20459;-86
2022/03/05 02:01:38;;;;;;;35.90;15.90;;;3.60;92.50;;;;;;6090055;23;20415;-86
2022/03/05 02:04:33;;;;;;;34.50;15.07;;;3.50;92.50;;;;;;6113262;23;20478;-85
2022/03/05 02:07:25;;;;;;;31.43;14.47;;;3.60;92.50;;;;;;6090111;23;20998;-85
2022/03/05 02:10:09;;;;;;;26.40;13.10;;;3.50;92.80;;;;;;6089274;23;20443;-83
2022/03/05 02:13:16;;;;;;;;;;;;;;;;;;;;;
2022/03/05 02:16:01;;;;;;;34.43;15.37;;;3.60;93.10;;;;;;6117813;23;20427;-82
2022/03/05 02:18:55;;;;;;;19.93;8.77;;;3.50;93.00;;;;;;6091891;23;20474;-85
2022/03/05 02:21:33;;;;;;;33.87;15.57;;;3.50;93.20;;;;;;6091732;23;21367;-85
2022/03/05 02:24:10;;;;;;;30.80;15.80;;;3.40;93.60;;;;;;6114560;23;20639;-84
2022/03/05 02:26:52;;;;;;;29.53;14.07;;;3.30;93.60;;;;;;6099546;23;20403;-86
2022/03/05 02:29:36;;;;;;;32.97;15.63;;;3.30;93.90;;;;;;6113063;23;20447;-85
2022/03/05 02:32:51;;;;;;;26.90;12.23;;;3.40;93.80;;;;;;6102752;23;20415;-85
2022/03/05 02:35:23;;;;;;;35.07;17.63;;;3.40;93.80;;;;;;6093505;23;20423;-82
2022/03/05 02:38:12;;;;;;;30.23;14.17;;;3.40;93.80;;;;;;6102875;23;20752;-83
2022/03/05 02:41:07;;;;;;;35.83;15.17;;;3.50;94.00;;;;;;6094333;23;20487;-84
2022/03/05 02:44:00;;;;;;;34.43;16.03;;;3.40;93.90;;;;;;6104957;23;20392;-84
2022/03/05 02:46:40;;;;;;;35.20;15.57;;;3.40;93.60;;;;;;6125599;23;20423;-85
2022/03/05 02:49:43;;;;;;;37.30;14.77;;;3.50;93.70;;;;;;6097832;23;20443;-83
2022/03/05 02:52:35;;;;;;;29.60;13.57;;;3.40;93.70;;;;;;6103737;23;20423;-84
2022/03/05 02:55:13;;;;;;;28.37;15.27;;;3.20;94.10;;;;;;6125505;23;20467;-83
2022/03/05 02:58:06;;;;;;;35.20;13.50;;;3.30;94.20;;;;;;6125586;23;20431;-84
2022/03/05 03:00:53;;;;;;;33.10;15.97;;;3.40;93.90;;;;;;6127549;23;20430;-82
2022/03/05 03:03:41;;;;;;;34.40;15.57;;;3.30;94.00;;;;;;6106004;23;20438;-84
2022/03/05 03:06:21;;;;;;;28.93;13.50;;;3.20;94.10;;;;;;6126626;23;20979;-85
2022/03/05 03:08:58;;;;;;;30.33;15.93;;;3.10;94.40;;;;;;6100345;23;20450;-85
2022/03/05 03:11:34;;;;;;;32.27;15.33;;;3.20;94.50;;;;;;6102393;23;20420;-82
2022/03/05 03:14:50;;;;;;;31.50;15.20;;;3.10;94.80;;;;;;6107199;23;20899;-83
2022/03/05 03:17:25;;;;;;;30.70;13.80;;;3.20;94.90;;;;;;6098657;23;20515;-83
2022/03/05 03:20:01;;;;;;;36.33;15.57;;;3.30;94.70;;;;;;6099571;23;20423;-83
2022/03/05 03:22:37;;;;;;;29.57;14.50;;;3.30;94.40;;;;;;6103208;23;20416;-83
2022/03/05 03:25:22;;;;;;;32.27;14.87;;;3.10;94.30;;;;;;6103341;23;20408;-85
2022/03/05 03:28:10;;;;;;;25.50;14.83;;;3.10;94.50;;;;;;6092321;23;20431;-84
2022/03/05 03:30:55;;;;;;;29.37;14.40;;;3.10;94.70;;;;;;6082851;23;20966;-84
2022/03/05 03:33:46;;;;;;;32.43;15.50;;;3.10;94.70;;;;;;6116505;23;20411;-81
2022/03/05 03:36:25;;;;;;;22.10;11.40;;;3.00;94.80;;;;;;6114963;23;20852;-83
2022/03/05 03:39:06;;;;;;;31.33;14.00;;;3.00;95.00;;;;;;6115831;23;20459;-83
2022/03/05 03:41:43;;;;;;;29.73;14.13;;;2.90;95.00;;;;;;6117003;23;20419;-86
2022/03/05 03:44:25;;;;;;;31.60;14.77;;;2.90;95.10;;;;;;6089278;23;20424;-84
2022/03/05 03:46:58;;;;;;;27.57;11.90;;;3.00;95.40;;;;;;6105704;23;20415;-84
2022/03/05 03:49:42;;;;;;;32.83;14.20;;;3.10;95.00;;;;;;6106021;23;20499;-86
2022/03/05 03:52:38;;;;;;;36.17;14.63;;;3.00;95.00;;;;;;6131031;23;20511;-84
2022/03/05 03:55:22;;;;;;;27.17;12.30;;;3.00;94.90;;;;;;6102102;23;20415;-84
2022/03/05 03:57:56;;;;;;;25.33;10.00;;;3.00;94.90;;;;;;6128323;23;20503;-83
2022/03/05 04:00:32;;;;;;;29.87;14.10;;;3.00;95.00;;;;;;6137937;23;20423;-86
2022/03/05 04:03:16;;;;;;;28.40;13.90;;;2.80;95.00;;;;;;6087787;23;20562;-85
2022/03/05 04:05:57;;;;;;;29.73;13.17;;;2.80;95.40;;;;;;6105226;23;20439;-85
2022/03/05 04:08:47;;;;;;;29.23;12.93;;;2.80;95.50;;;;;;6051197;23;20416;-84
2022/03/05 04:11:44;;;;;;;29.77;13.40;;;2.80;95.50;;;;;;6128416;23;20420;-85
2022/03/05 04:14:41;;;;;;;22.90;12.10;;;2.80;95.60;;;;;;6105530;23;20392;-86
2022/03/05 04:17:38;;;;;;;28.40;13.40;;;2.70;95.70;;;;;;6115825;23;20952;-82
2022/03/05 04:20:18;;;;;;;30.00;14.00;;;2.60;95.80;;;;;;6091556;23;20430;-83
2022/03/05 04:23:07;;;;;;;33.93;13.43;;;2.70;96.00;;;;;;6091573;23;20592;-83
2022/03/05 04:25:44;;;;;;;23.67;13.17;;;2.70;95.90;;;;;;6100395;23;20414;-86
2022/03/05 04:28:18;;;;;;;23.40;11.90;;;2.70;95.80;;;;;;6110430;23;20919;-84
2022/03/05 04:31:11;;;;;;;31.07;14.23;;;2.70;95.90;;;;;;6108456;23;20447;-85
2022/03/05 04:33:58;;;;;;;22.70;11.80;;;2.70;96.00;;;;;;6111957;23;20404;-85
2022/03/05 04:36:31;;;;;;;28.33;13.47;;;2.70;95.90;;;;;;6112070;23;20470;-84
2022/03/05 04:39:02;;;;;;;24.37;12.17;;;2.60;96.00;;;;;;6142375;23;20482;-85
2022/03/05 04:41:50;;;;;;;24.77;12.13;;;2.60;96.20;;;;;;6124593;23;20411;-84
2022/03/05 04:44:44;;;;;;;26.73;13.60;;;2.60;96.40;;;;;;6123380;23;20411;-86
2022/03/05 04:47:30;;;;;;;28.80;13.80;;;2.70;96.10;;;;;;6126300;23;20463;-85
2022/03/05 04:50:13;;;;;;;20.17;10.40;;;2.60;96.30;;;;;;6123856;23;20511;-85
2022/03/05 04:53:07;;;;;;;26.97;13.10;;;2.70;96.30;;;;;;6126563;23;20415;-86
2022/03/05 04:55:34;;;;;;;26.17;11.60;;;2.70;96.00;;;;;;6106408;23;20990;-82
2022/03/05 04:58:10;;;;;;;27.43;14.17;;;2.60;96.00;;;;;;6127783;23;21064;-85
2022/03/05 05:00:47;;;;;;;28.43;11.90;;;2.70;96.20;;;;;;6122194;23;20442;-85
2022/03/05 05:03:27;;;;;;;25.77;12.50;;;2.60;96.20;;;;;;6102055;23;20959;-86
2022/03/05 05:06:11;;;;;;;26.20;13.33;;;2.60;96.60;;;;;;6142521;23;20403;-86
2022/03/05 05:08:56;;;;;;;27.43;13.53;;;2.60;96.30;;;;;;6118522;23;20454;-83
2022/03/05 05:11:34;;;;;;;29.73;13.23;;;2.60;96.60;;;;;;6126992;23;20446;-84
2022/03/05 05:14:32;;;;;;;33.50;14.00;;;2.60;96.50;;;;;;6102876;23;20400;-85
2022/03/05 05:17:23;;;;;;;31.00;14.07;;;2.50;96.50;;;;;;6117191;23;20442;-83
2022/03/05 05:19:56;;;;;;;23.80;11.43;;;2.50;96.60;;;;;;6092456;23;20423;-84
2022/03/05 05:22:35;;;;;;;28.03;13.07;;;2.60;96.40;;;;;;6118932;23;20423;-84
2022/03/05 05:25:15;;;;;;;28.83;13.70;;;2.50;96.40;;;;;;6094008;23;20675;-82
2022/03/05 05:28:48;;;;;;;;;;;;;;;;;;;;;
2022/03/05 05:31:23;;;;;;;28.03;12.53;;;2.50;96.40;;;;;;6116701;23;20838;-85
2022/03/05 05:34:04;;;;;;;28.77;13.03;;;2.70;96.60;;;;;;6092916;23;20407;-84
2022/03/05 05:36:30;;;;;;;31.57;14.60;;;2.70;96.30;;;;;;6116029;23;20430;-83
2022/03/05 05:38:57;;;;;;;34.73;15.20;;;2.60;96.20;;;;;;6087502;23;20442;-82
2022/03/05 05:41:24;;;;;;;27.50;14.00;;;2.60;96.50;;;;;;6114949;23;20412;-84
2022/03/05 05:43:50;;;;;;;27.03;12.50;;;2.70;96.30;;;;;;6112902;23;20769;-82
2022/03/05 05:46:17;;;;;;;26.60;14.13;;;2.70;96.20;;;;;;6114210;23;20455;-82
2022/03/05 05:48:52;;;;;;;26.40;13.23;;;2.70;96.00;;;;;;6113377;23;20439;-83
2022/03/05 05:51:19;;;;;;;24.50;13.13;;;2.70;96.20;;;;;;6089652;23;20447;-84
2022/03/05 05:53:51;;;;;;;25.97;12.80;;;2.60;96.20;;;;;;6105377;23;20421;-84
2022/03/05 05:56:18;;;;;;;29.33;12.93;;;2.80;96.20;;;;;;6132212;23;20418;-85
2022/03/05 05:59:05;;;;;;;31.50;13.50;;;2.80;95.80;;;;;;6101774;23;20893;-84
2022/03/05 06:01:56;;;;;;;26.23;12.43;;;2.60;96.10;;;;;;6093791;23;20498;-83
2022/03/05 06:04:42;;;;;;;27.17;12.30;;;2.60;96.40;;;;;;6099899;23;20451;-83
2022/03/05 06:07:32;;;;;;;31.87;14.63;;;2.70;96.30;;;;;;6100696;23;20485;-86
2022/03/05 06:10:09;;;;;;;26.47;12.20;;;2.70;96.40;;;;;;6114972;23;20518;-86
2022/03/05 06:12:37;;;;;;;26.87;11.83;;;2.70;96.30;;;;;;6101151;23;20507;-84
2022/03/05 06:15:04;;;;;;;29.43;13.93;;;2.80;96.30;;;;;;6101969;23;20440;-83
2022/03/05 06:17:31;;;;;;;23.53;13.00;;;2.80;96.10;;;;;;6127126;23;20431;-84
2022/03/05 06:19:58;;;;;;;26.03;13.10;;;2.70;96.30;;;;;;6102425;23;20766;-84
2022/03/05 06:22:25;;;;;;;31.00;14.00;;;2.80;96.10;;;;;;6128081;23;20415;-84
2022/03/05 06:24:51;;;;;;;30.67;14.67;;;2.70;96.10;;;;;;6103884;23;20389;-85
2022/03/05 06:27:21;;;;;;;26.53;13.33;;;2.80;96.00;;;;;;6127678;23;20430;-85
2022/03/05 06:30:22;;;;;;;26.83;13.70;;;2.90;96.10;;;;;;6100166;23;20447;-84
2022/03/05 06:33:14;;;;;;;25.80;12.43;;;2.80;95.90;;;;;;6103731;23;20471;-84
2022/03/05 06:35:48;;;;;;;23.83;12.20;;;2.90;96.00;;;;;;6103541;23;20438;-84
2022/03/05 06:38:30;;;;;;;27.80;15.23;;;2.80;95.90;;;;;;6100265;23;20463;-84
2022/03/05 06:41:19;;;;;;;24.03;12.60;;;2.80;96.20;;;;;;6103774;23;20436;-84
2022/03/05 06:44:14;;;;;;;;;;;;;;;;;;;;;
2022/03/05 06:47:02;;;;;;;27.50;13.60;;;2.70;96.40;;;;;;6129909;23;20418;-85
2022/03/05 06:49:47;;;;;;;28.23;13.77;;;2.60;96.70;;;;;;6103946;23;20436;-84
2022/03/05 06:52:31;;;;;;;26.17;13.50;;;2.80;96.40;;;;;;6106644;23;20825;-85
2022/03/05 06:55:36;;;;;;;30.10;14.40;;;2.80;96.20;;;;;;6104955;23;20411;-83
2022/03/05 06:58:18;;;;;;;25.27;12.50;;;2.70;96.50;;;;;;6125881;23;20494;-84
2022/03/05 07:01:04;;;;;;;21.53;12.37;;;3.00;96.20;;;;;;6082168;23;20907;-84
2022/03/05 07:04:06;;;;;;;21.90;12.10;;;3.00;95.60;;;;;;6069979;23;20408;-85
2022/03/05 07:06:51;;;;;;;24.50;11.40;;;2.90;95.80;;;;;;6104911;23;20426;-85
2022/03/05 07:12:53;;;;;;;;;;;;;;;;;;;;;
2022/03/05 07:15:49;;;;;;;20.83;11.10;;;3.10;95.80;;;;;;6128596;23;20486;-84
2022/03/05 07:18:27;;;;;;;31.27;13.97;;;2.90;95.70;;;;;;6128248;23;20451;-85
2022/03/05 07:21:08;;;;;;;25.20;13.10;;;3.10;95.60;;;;;;6103825;23;20412;-86
2022/03/05 07:24:17;;;;;;;29.80;14.13;;;3.10;95.40;;;;;;6112543;23;20502;-84
2022/03/05 07:27:02;;;;;;;23.50;11.77;;;3.00;95.90;;;;;;6107566;23;20439;-83
2022/03/05 07:29:43;;;;;;;22.00;10.40;;;3.20;96.20;;;;;;6115136;23;20421;-84
2022/03/05 07:32:32;;;;;;;23.43;12.13;;;4.60;95.20;;;;;;6063235;23;20443;-84
2022/03/05 07:35:10;;;;;;;22.13;11.33;;;6.60;91.30;;;;;;6105209;23;20918;-85
2022/03/05 07:37:54;;;;;;;22.37;11.10;;;8.10;82.60;;;;;;6128978;23;20439;-84
2022/03/05 07:40:46;;;;;;;26.10;12.70;;;8.40;78.60;;;;;;6111926;23;20396;-86
2022/03/05 07:43:38;;;;;;;24.53;14.40;;;9.80;70.40;;;;;;6128747;23;20411;-85
2022/03/05 07:46:14;;;;;;;21.67;12.73;;;9.70;71.10;;;;;;6110610;23;20522;-84
2022/03/05 07:48:52;;;;;;;25.03;13.57;;;11.40;63.50;;;;;;6130732;23;20458;-86
2022/03/05 07:51:44;;;;;;;23.70;14.40;;;12.10;59.40;;;;;;6112163;23;20432;-84
2022/03/05 07:54:27;;;;;;;22.23;14.23;;;12.80;56.60;;;;;;6103235;23;20412;-86
2022/03/05 07:57:17;;;;;;;24.10;13.60;;;12.80;55.30;;;;;;6106526;23;20468;-86
2022/03/05 08:00:09;;;;;;;24.17;13.97;;;11.10;55.20;;;;;;6101762;23;20384;-84
2022/03/05 08:03:25;;;;;;;22.70;12.27;;;8.20;62.00;;;;;;6106485;23;20781;-84
2022/03/05 08:06:20;;;;;;;24.17;13.20;;;6.40;73.80;;;;;;6113223;23;20474;-86
2022/03/05 08:09:09;;;;;;;25.20;11.07;;;6.60;78.00;;;;;;6054814;23;20417;-86
2022/03/05 08:11:53;;;;;;;25.50;13.80;;;7.40;77.50;;;;;;6045416;23;20488;-84
2022/03/05 08:15:08;;;;;;;25.30;13.37;;;6.80;76.60;;;;;;6106001;23;20415;-86
2022/03/05 08:18:12;;;;;;;19.07;13.03;;;6.10;79.00;;;;;;6044052;23;20806;-85
2022/03/05 08:24:47;;;;;;;25.03;13.60;;;5.50;84.50;;;;;;6098594;23;20412;-84
2022/03/05 08:27:34;;;;;;;22.17;13.57;;;5.80;85.90;;;;;;6079857;23;20814;-84
2022/03/05 08:30:30;;;;;;;23.43;12.00;;;5.80;84.30;;;;;;6074779;23;20455;-83
2022/03/05 08:33:17;;;;;;;20.93;10.93;;;5.30;85.70;;;;;;6072066;23;20420;-85
2022/03/05 08:36:09;;;;;;;24.30;11.10;;;5.20;86.30;;;;;;6094355;23;20455;-84
2022/03/05 08:39:21;;;;;;;;;;;;;;;;;;;;;
2022/03/05 08:42:22;;;;;;;20.33;10.17;;;5.20;87.00;;;;;;6147162;23;20497;-84
2022/03/05 08:48:44;;;;;;;19.20;8.90;;;5.10;87.40;;;;;;6144241;23;20455;-87
2022/03/05 08:55:42;;;;;;;23.57;13.53;;;5.30;87.50;;;;;;6137070;23;20400;-85
2022/03/05 08:59:16;;;;;;;;;;;;;;;;;;;;;
2022/03/05 09:02:35;;;;;;;21.23;11.93;;;5.40;86.40;;;;;;6100242;23;20380;-86
2022/03/05 09:05:27;;;;;;;27.80;15.20;;;5.70;85.50;;;;;;6046029;23;20409;-87
2022/03/05 09:08:31;;;;;;;19.53;12.53;;;5.40;85.40;;;;;;6126865;23;20464;-85
2022/03/05 09:11:28;;;;;;;23.07;13.50;;;5.40;86.20;;;;;;6097486;23;20464;-86
2022/03/05 09:14:37;;;;;;;26.27;13.73;;;5.30;87.10;;;;;;6118455;23;20625;-84
2022/03/05 09:17:22;;;;;;;16.97;10.23;;;5.30;86.30;;;;;;6116569;23;21003;-84
2022/03/05 09:20:45;;;;;;;;;;;;;;;;;;;;;
2022/03/05 09:23:50;;;;;;;26.03;12.93;;;5.60;86.00;;;;;;6114950;23;20408;-87
2022/03/05 09:26:47;;;;;;;23.93;12.20;;;5.50;85.80;;;;;;6117902;23;20419;-86
2022/03/05 09:29:45;;;;;;;23.80;11.70;;;5.60;86.30;;;;;;6079591;23;20381;-85
2022/03/05 09:32:34;;;;;;;23.03;12.37;;;5.70;86.10;;;;;;6075645;23;20397;-85
2022/03/05 09:35:39;;;;;;;20.13;11.97;;;5.80;85.70;;;;;;5980789;24;20436;-84
2022/03/05 09:38:30;;;;;;;21.10;12.60;;;5.90;86.40;;;;;;5904975;24;20422;-85
2022/03/05 09:41:31;;;;;;;24.40;12.67;;;5.90;84.80;;;;;;5912220;24;20430;-84
2022/03/05 09:44:42;;;;;;;19.10;13.13;;;6.20;84.70;;;;;;5930464;24;20494;-86
2022/03/05 09:47:32;;;;;;;26.33;15.13;;;6.20;83.70;;;;;;5911128;24;20490;-86
2022/03/05 09:50:48;;;;;;;19.83;12.30;;;6.30;83.50;;;;;;5897704;24;20428;-83
2022/03/05 09:53:35;;;;;;;21.67;12.17;;;6.30;84.20;;;;;;5944121;24;20413;-86
2022/03/05 09:59:35;;;;;;;27.13;13.47;;;6.50;82.30;;;;;;5932410;24;20398;-87
2022/03/05 10:07:09;;;;;;;21.57;14.50;;;9.20;73.10;;;;;;5947656;24;20410;-86
2022/03/05 10:10:55;;;;;;;20.97;12.73;;;10.30;64.60;;;;;;5926672;24;20409;-86
2022/03/05 10:18:20;;;;;;;;;;;;;;;;;;;;;
2022/03/05 10:21:46;;;;;;;22.10;14.30;;;12.40;56.90;;;;;;6060272;23;20402;-87
2022/03/05 10:24:48;;;;;;;22.00;14.67;;;12.50;55.70;;;;;;6022415;23;20406;-86
2022/03/05 10:28:22;;;;;;;;;;;;;;;;;;;;;
2022/03/05 10:32:15;;;;;;;20.60;11.93;;;10.70;57.30;;;;;;6052276;23;20504;-86
2022/03/05 10:34:56;;;;;;;21.47;11.90;;;9.70;60.60;;;;;;6034043;23;20414;-85
2022/03/05 10:41:29;;;;;;;21.77;13.03;;;9.00;64.90;;;;;;6094908;23;20555;-84
2022/03/05 10:44:08;;;;;;;21.17;12.80;;;9.00;66.00;;;;;;6080710;23;20976;-85
2022/03/05 10:47:33;;;;;;;;;;;;;;;;;;;;;
2022/03/05 10:50:33;;;;;;;22.33;12.67;;;8.90;67.20;;;;;;6106627;23;20470;-86
2022/03/05 10:53:36;;;;;;;23.20;14.20;;;9.10;67.00;;;;;;6098150;23;20489;-86
2022/03/05 10:56:41;;;;;;;18.80;11.87;;;9.00;67.30;;;;;;6080946;23;20436;-85
2022/03/05 11:00:12;;;;;;;19.73;12.43;;;8.80;68.30;;;;;;6064249;23;20407;-84
2022/03/05 11:02:42;;;;;;;23.67;11.93;;;8.90;68.30;;;;;;6100402;23;20416;-84
2022/03/05 11:05:34;;;;;;;20.50;10.73;;;8.60;66.60;;;;;;6083407;23;20424;-84
2022/03/05 11:15:34;;;;;;;;;;;;;;;;;;;;;
2022/03/05 11:19:03;;;;;;;15.83;11.17;;;8.80;65.00;;;;;;6080939;23;20421;-83
2022/03/05 11:22:05;;;;;;;19.27;12.40;;;9.00;64.90;;;;;;5969794;23;20459;-88
2022/03/05 11:25:15;;;;;;;15.13;9.97;;;8.60;65.70;;;;;;6003562;23;20451;-87
2022/03/05 11:31:45;;;;;;;18.20;11.77;;;9.20;63.70;;;;;;6018268;23;20443;-84
2022/03/05 11:38:40;;;;;;;16.03;10.90;;;9.20;61.60;;;;;;5982420;23;20724;-85
2022/03/05 11:41:27;;;;;;;18.23;11.83;;;9.30;60.80;;;;;;6076797;23;20417;-85
2022/03/05 11:44:45;;;;;;;16.90;10.90;;;9.20;61.60;;;;;;6080281;23;20428;-84
2022/03/05 11:47:55;;;;;;;16.20;10.60;;;9.40;61.80;;;;;;6019905;23;20833;-85
2022/03/05 11:51:25;;;;;;;15.93;10.67;;;9.50;60.10;;;;;;6022596;23;20442;-86
2022/03/05 11:54:41;;;;;;;18.67;11.40;;;9.30;59.70;;;;;;6065039;23;20458;-86
2022/03/05 11:57:36;;;;;;;19.33;10.17;;;9.10;60.50;;;;;;6076363;23;20433;-84
2022/03/05 12:00:52;;;;;;;;;;;;;;;;;;;;;
2022/03/05 12:03:53;;;;;;;14.97;10.70;;;9.40;60.20;;;;;;6081627;23;20418;-87
2022/03/05 12:06:50;;;;;;;16.50;10.33;;;9.80;60.30;;;;;;6076793;23;20419;-85
2022/03/05 12:10:29;;;;;;;19.67;11.40;;;9.60;58.60;;;;;;6078496;23;20918;-85
2022/03/05 12:13:35;;;;;;;15.60;10.40;;;9.80;59.00;;;;;;5971820;24;20409;-84
2022/03/05 12:16:32;;;;;;;17.00;11.13;;;9.80;58.30;;;;;;5981955;23;20412;-85
2022/03/05 12:19:08;;;;;;;15.30;10.27;;;10.00;57.40;;;;;;5998709;23;20450;-85
2022/03/05 12:21:54;;;;;;;18.83;11.60;;;10.10;57.30;;;;;;5991956;24;20554;-84
2022/03/05 12:24:38;;;;;;;16.77;10.83;;;10.20;57.30;;;;;;5992156;24;20408;-83
2022/03/05 12:27:21;;;;;;;17.53;11.87;;;10.20;56.70;;;;;;5994504;23;20440;-85
2022/03/05 12:30:31;;;;;;;14.50;9.93;;;10.00;54.50;;;;;;5948518;24;20404;-84
2022/03/05 12:33:15;;;;;;;14.80;10.00;;;10.30;53.30;;;;;;5986317;24;20446;-85
2022/03/05 12:36:46;;;;;;;;;;;;;;;;;;;;;
2022/03/05 12:39:23;;;;;;;14.80;10.47;;;10.50;50.00;;;;;;6002912;23;20453;-85
2022/03/05 12:42:07;;;;;;;15.33;9.43;;;10.50;50.30;;;;;;6015867;23;20868;-85
2022/03/05 12:45:05;;;;;;;16.87;10.83;;;10.90;51.10;;;;;;6057904;23;20399;-85
2022/03/05 12:48:10;;;;;;;13.30;9.80;;;11.60;51.30;;;;;;6098048;23;20417;-84
2022/03/05 12:54:47;;;;;;;11.83;8.90;;;12.70;48.00;;;;;;6099003;23;20396;-85
2022/03/05 12:57:24;;;;;;;10.07;8.77;;;12.60;44.10;;;;;;6101966;23;20436;-86
2022/03/05 13:04:32;;;;;;;12.23;9.37;;;13.50;40.40;;;;;;6104004;23;20463;-85
2022/03/05 13:11:06;;;;;;;14.00;8.33;;;13.50;40.50;;;;;;6097850;23;20400;-86
2022/03/05 13:14:05;;;;;;;8.97;7.90;;;13.80;39.10;;;;;;6115776;23;20459;-85
2022/03/05 13:23:45;;;;;;;12.03;8.17;;;13.70;36.30;;;;;;6114943;23;20421;-84
2022/03/05 13:26:35;;;;;;;14.23;8.27;;;14.10;36.80;;;;;;6117695;23;20447;-86
2022/03/05 13:29:47;;;;;;;11.70;8.40;;;13.80;37.50;;;;;;6104222;23;20448;-86
2022/03/05 13:33:01;;;;;;;12.27;8.80;;;14.60;37.80;;;;;;6106646;23;20464;-83
2022/03/05 13:39:09;;;;;;;8.57;7.67;;;14.60;34.70;;;;;;6101266;23;20448;-83
2022/03/05 13:42:09;;;;;;;10.50;8.37;;;14.70;34.40;;;;;;6094252;23;20479;-83
2022/03/05 13:47:34;;;;;;;10.00;8.40;;;14.40;34.70;;;;;;6040842;23;20426;-85
2022/03/05 13:50:35;;;;;;;12.00;8.60;;;14.20;34.70;;;;;;6021707;23;20438;-84
2022/03/05 13:53:25;;;;;;;12.40;8.60;;;14.10;35.00;;;;;;6042624;23;20411;-84
2022/03/05 13:56:23;;;;;;;9.33;7.70;;;14.10;34.90;;;;;;6020592;23;20414;-83
2022/03/05 13:59:21;;;;;;;12.40;8.60;;;14.10;35.30;;;;;;6017706;23;20883;-84
2022/03/05 14:02:32;;;;;;;9.60;8.27;;;14.70;34.50;;;;;;5925560;24;20402;-83
2022/03/05 14:05:37;;;;;;;8.50;7.60;;;14.60;34.40;;;;;;6025915;23;20407;-84
2022/03/05 14:08:21;;;;;;;10.77;7.93;;;14.10;34.00;;;;;;6020455;23;20407;-85
2022/03/05 14:11:11;;;;;;;10.80;8.60;;;13.50;34.60;;;;;;6022204;23;20406;-85
2022/03/05 14:14:43;;;;;;;10.43;8.63;;;13.00;35.40;;;;;;6023770;23;20438;-86
2022/03/05 14:18:04;;;;;;;8.63;6.40;;;12.90;35.70;;;;;;6043493;23;20422;-86
2022/03/05 14:20:59;;;;;;;8.60;6.97;;;12.50;35.80;;;;;;6064772;23;20402;-87
2022/03/05 14:23:49;;;;;;;8.60;7.43;;;12.70;35.10;;;;;;6043060;23;20425;-86
2022/03/05 14:26:42;;;;;;;8.47;6.60;;;12.40;35.90;;;;;;6042112;23;20478;-85
2022/03/05 14:29:35;;;;;;;7.00;6.03;;;12.10;35.20;;;;;;6059945;23;20442;-85
2022/03/05 14:32:26;;;;;;;8.40;6.70;;;12.00;35.40;;;;;;6063650;23;20816;-87
2022/03/05 14:35:19;;;;;;;10.73;7.97;;;11.90;35.50;;;;;;5937036;24;20418;-84
2022/03/05 14:38:23;;;;;;;8.33;6.53;;;11.80;36.00;;;;;;5927940;24;20449;-86
2022/03/05 14:41:31;;;;;;;9.73;6.37;;;11.70;36.10;;;;;;5914204;24;20414;-85
2022/03/05 14:44:50;;;;;;;8.70;6.97;;;11.80;36.20;;;;;;5908221;24;20456;-85
2022/03/05 14:48:06;;;;;;;10.40;7.00;;;11.70;36.20;;;;;;5908631;24;20445;-85
2022/03/05 14:50:51;;;;;;;8.20;6.70;;;11.70;36.40;;;;;;5926956;24;20418;-84
2022/03/05 14:53:21;;;;;;;9.17;6.50;;;11.70;36.30;;;;;;5927584;24;20450;-84
2022/03/05 14:56:15;;;;;;;9.20;6.87;;;11.70;36.10;;;;;;5909952;24;20423;-85
2022/03/05 14:59:25;;;;;;;9.60;7.40;;;11.60;36.20;;;;;;5919559;24;20437;-84
2022/03/05 15:02:12;;;;;;;9.30;6.37;;;11.50;36.00;;;;;;5908126;24;20452;-86
2022/03/05 15:09:44;;;;;;;;;;;;;;;;;;;;;
2022/03/05 15:13:01;;;;;;;10.17;7.40;;;11.30;36.70;;;;;;6025438;23;20445;-82
2022/03/05 15:16:06;;;;;;;8.70;7.70;;;11.30;37.10;;;;;;6044940;23;20442;-85
2022/03/05 15:18:48;;;;;;;9.77;6.93;;;11.10;37.20;;;;;;6066293;23;20434;-85
2022/03/05 15:34:44;;;;;;;9.50;6.77;;;11.10;37.50;;;;;;5921710;23;20405;-87
2022/03/05 15:40:21;;;;;;;11.90;7.23;;;11.10;36.60;;;;;;6095625;23;20550;-84
2022/03/05 15:43:08;;;;;;;10.63;6.83;;;11.20;37.40;;;;;;6101753;23;20500;-85
2022/03/05 15:48:55;;;;;;;9.03;6.90;;;11.20;36.80;;;;;;6099760;23;20718;-84
2022/03/05 15:51:43;;;;;;;9.30;6.77;;;11.20;36.50;;;;;;6116628;23;20467;-84
2022/03/05 15:54:27;;;;;;;8.97;6.17;;;11.30;35.50;;;;;;6105264;23;20774;-85
2022/03/05 15:57:36;;;;;;;10.80;6.93;;;11.30;35.20;;;;;;6103531;23;20507;-84
2022/03/05 16:00:36;;;;;;;7.20;6.00;;;11.20;35.30;;;;;;6107492;23;20561;-86
2022/03/05 16:03:25;;;;;;;10.03;6.20;;;11.20;35.80;;;;;;6104180;23;20884;-85
2022/03/05 16:05:58;;;;;;;10.33;7.40;;;11.20;35.60;;;;;;6104170;23;20434;-85
2022/03/05 16:09:02;;;;;;;10.33;6.80;;;11.40;36.60;;;;;;6102800;23;20440;-86
2022/03/05 16:11:54;;;;;;;8.73;6.80;;;11.50;36.30;;;;;;6098346;23;20530;-86
2022/03/05 16:15:07;;;;;;;10.00;6.37;;;11.50;35.70;;;;;;6109213;23;20411;-85
2022/03/05 16:17:48;;;;;;;9.37;6.60;;;11.50;35.50;;;;;;6069949;23;21076;-86
2022/03/05 16:20:30;;;;;;;11.50;7.30;;;11.40;36.00;;;;;;6105404;23;20467;-83
2022/03/05 16:28:23;;;;;;;;;;;;;;;;;;;;;
2022/03/05 16:31:02;;;;;;;8.90;7.23;;;11.50;35.90;;;;;;6127859;23;20930;-85
2022/03/05 16:34:09;;;;;;;9.90;8.10;;;11.50;36.70;;;;;;6104996;23;20408;-86
2022/03/05 16:36:44;;;;;;;9.60;8.07;;;11.50;37.00;;;;;;6121522;23;20544;-86
2022/03/05 16:39:25;;;;;;;12.60;8.50;;;11.40;37.00;;;;;;6104495;23;20439;-85